createdAt,value
2023-07-21T07:27:36.843Z,51.99
2023-07-21T07:30:12.233Z,52.22
2023-07-21T07:36:01.471Z,52.08
2023-07-21T07:38:30.187Z,52.38
2023-07-21T07:41:06.768Z,52.55
2023-07-21T07:43:35.726Z,52.79
2023-07-21T07:46:07.138Z,52.80
2023-07-21T07:48:36.606Z,52.82
2023-07-21T07:51:08.780Z,52.93
2023-07-21T07:53:37.290Z,53.14
2023-07-21T07:56:05.640Z,53.16
2023-07-21T07:58:33.788Z,53.34
2023-07-21T08:01:05.339Z,53.55
2023-07-21T08:03:34.372Z,53.54
2023-07-21T08:06:03.042Z,53.61
2023-07-21T08:08:31.108Z,53.66
2023-07-21T08:10:59.180Z,53.78
2023-07-21T08:13:27.255Z,53.93
2023-07-21T08:15:55.349Z,53.98
2023-07-21T08:18:23.442Z,54.02
2023-07-21T08:20:52.315Z,54.10
2023-07-21T08:23:29.684Z,54.18
2023-07-21T08:25:58.788Z,54.17
2023-07-21T08:28:26.870Z,54.17
2023-07-21T08:33:26.494Z,54.36
2023-07-21T08:35:55.354Z,54.27
2023-07-21T08:38:24.019Z,54.37
2023-07-21T08:41:01.669Z,54.41
2023-07-21T08:43:30.239Z,54.35
2023-07-21T08:46:04.857Z,54.34
2023-07-21T08:48:34.040Z,54.47
2023-07-21T08:51:02.868Z,54.49
2023-07-21T08:53:30.963Z,54.47
2023-07-21T08:56:00.869Z,54.48
2023-07-21T08:58:31.578Z,54.50
2023-07-21T09:01:00.618Z,54.61
2023-07-21T09:03:31.657Z,54.59
2023-07-21T09:06:01.847Z,54.57
2023-07-21T09:08:33.384Z,54.56
2023-07-21T09:11:03.414Z,54.68
2023-07-21T09:13:32.943Z,54.58
2023-07-21T09:16:06.926Z,54.64
2023-07-21T09:18:42.843Z,54.64
2023-07-21T09:21:24.486Z,54.67
2023-07-21T09:24:02.685Z,54.84
2023-07-21T09:26:31.647Z,54.70
2023-07-21T09:29:00.251Z,54.64
2023-07-21T09:31:33.644Z,54.68
2023-07-21T09:34:10.831Z,54.75
2023-07-21T09:36:48.422Z,54.68
2023-07-21T09:39:17.615Z,54.66
2023-07-21T09:41:47.364Z,54.58
2023-07-21T09:44:17.684Z,54.68
2023-07-21T09:46:45.766Z,54.64
2023-07-21T09:49:17.198Z,54.56
2023-07-21T09:51:49.363Z,54.55
2023-07-21T09:54:22.059Z,54.59
2023-07-21T09:56:54.867Z,54.57
2023-07-21T09:59:23.033Z,54.42
2023-07-21T10:01:52.974Z,54.31
2023-07-21T10:04:21.985Z,54.38
2023-07-21T10:06:50.185Z,54.42
2023-07-21T10:09:18.825Z,54.34
2023-07-21T10:13:55.795Z,52.44
2023-07-21T10:16:57.774Z,52.65
2023-07-21T10:19:30.520Z,50.20
2023-07-21T10:21:58.976Z,50.75
2023-07-21T10:24:29.974Z,50.55
2023-07-21T10:27:06.378Z,49.92
2023-07-21T10:29:34.746Z,50.01
2023-07-21T10:32:06.072Z,49.17
2023-07-21T10:34:41.068Z,49.51
2023-07-21T10:37:09.529Z,48.87
2023-07-21T10:39:45.331Z,47.00
2023-07-21T10:42:13.692Z,47.48
2023-07-21T10:44:45.444Z,47.36
2023-07-21T10:47:19.311Z,47.15
2023-07-21T10:49:49.381Z,47.26
2023-07-21T10:52:17.997Z,46.29
2023-07-21T10:54:46.163Z,47.39
2023-07-21T10:57:14.514Z,47.24
2023-07-21T10:59:43.261Z,46.37
2023-07-21T11:02:11.416Z,46.58
2023-07-21T11:04:42.046Z,46.06
2023-07-21T11:07:10.756Z,45.46
2023-07-21T11:09:45.633Z,44.17
2023-07-21T11:12:13.646Z,41.98
2023-07-21T11:14:41.636Z,41.98
2023-07-21T11:17:10.008Z,43.24
2023-07-21T11:19:40.246Z,43.35
2023-07-21T11:22:10.720Z,42.18
2023-07-21T11:24:39.255Z,41.98
2023-07-21T11:27:12.067Z,41.54
2023-07-21T11:29:43.868Z,41.33
2023-07-21T11:32:20.906Z,41.46
2023-07-21T11:35:00.564Z,41.04
2023-07-21T11:37:46.847Z,39.31
2023-07-21T11:40:28.025Z,39.65
2023-07-21T11:42:59.452Z,40.37
2023-07-21T11:45:37.229Z,40.42
2023-07-21T11:48:30.493Z,40.98
2023-07-21T11:50:58.456Z,40.93
2023-07-21T11:53:27.966Z,40.48
2023-07-21T11:55:56.149Z,40.42
2023-07-21T11:58:24.191Z,40.53
2023-07-21T12:00:52.408Z,40.35
2023-07-21T12:03:20.514Z,40.42
2023-07-21T12:05:48.935Z,38.04
2023-07-21T12:08:17.132Z,39.20
2023-07-21T12:10:45.208Z,39.42
2023-07-21T12:13:13.246Z,39.17
2023-07-21T12:15:41.323Z,38.85
2023-07-21T12:18:09.967Z,38.04
2023-07-21T12:20:38.308Z,38.25
2023-07-21T12:23:06.289Z,37.86
2023-07-21T12:25:35.372Z,39.01
2023-07-21T12:28:05.748Z,38.31
2023-07-21T12:30:34.435Z,38.81
2023-07-21T12:33:03.010Z,39.63
2023-07-21T12:35:31.465Z,39.80
2023-07-21T12:38:01.579Z,39.99
2023-07-21T12:40:30.258Z,40.00
2023-07-21T12:42:58.304Z,40.62
2023-07-21T12:45:26.510Z,41.16
2023-07-21T12:47:54.692Z,41.23
2023-07-21T12:50:23.060Z,41.64
2023-07-21T12:52:52.098Z,42.03
2023-07-21T12:55:20.228Z,42.10
2023-07-21T12:57:48.242Z,42.89
2023-07-21T13:00:17.753Z,42.89
2023-07-21T13:02:47.006Z,42.64
2023-07-21T13:05:15.316Z,42.73
2023-07-21T13:07:44.601Z,43.12
2023-07-21T13:10:12.740Z,45.28
2023-07-21T13:12:41.010Z,46.34
2023-07-21T13:15:09.547Z,47.91
2023-07-21T13:17:37.678Z,47.84
2023-07-21T13:20:06.896Z,49.02
2023-07-21T13:22:35.052Z,49.89
2023-07-21T13:25:03.166Z,49.26
2023-07-21T13:27:31.268Z,49.25
2023-07-21T13:29:59.470Z,49.72
2023-07-21T13:32:27.698Z,49.71
2023-07-21T13:34:56.023Z,49.59
2023-07-21T13:37:27.999Z,49.14
2023-07-21T13:39:56.165Z,50.53
2023-07-21T13:42:24.847Z,50.83
2023-07-21T13:44:54.492Z,51.23
2023-07-21T13:47:23.705Z,50.47
2023-07-21T13:49:55.108Z,50.87
2023-07-21T13:52:23.206Z,51.21
2023-07-21T13:54:52.373Z,51.51
2023-07-21T13:57:20.637Z,50.94
2023-07-21T13:59:48.964Z,51.41
2023-07-21T14:02:17.128Z,51.15
2023-07-21T14:04:45.589Z,52.19
2023-07-21T14:07:14.175Z,53.09
2023-07-21T14:09:42.431Z,53.56
2023-07-21T14:12:10.510Z,52.70
2023-07-21T14:14:38.687Z,52.79
2023-07-21T14:17:06.876Z,53.45
2023-07-21T14:19:35.570Z,54.36
2023-07-21T14:22:04.443Z,54.65
2023-07-21T14:24:32.519Z,55.30
2023-07-21T14:27:00.529Z,55.34
2023-07-21T14:29:28.636Z,54.83
2023-07-21T14:31:56.727Z,55.51
2023-07-21T14:34:25.601Z,54.95
2023-07-21T14:36:53.617Z,54.46
2023-07-21T14:39:22.420Z,53.95
2023-07-21T14:41:51.251Z,54.42
2023-07-21T14:44:21.381Z,54.76
2023-07-21T14:46:49.458Z,55.30
2023-07-21T14:49:18.137Z,55.00
2023-07-21T14:51:46.830Z,54.29
2023-07-21T14:54:14.916Z,53.68
2023-07-21T14:56:43.195Z,50.53
2023-07-21T14:59:12.089Z,49.59
2023-07-21T15:01:40.218Z,48.79
2023-07-21T15:04:08.676Z,48.83
2023-07-21T15:06:38.683Z,49.39
2023-07-21T15:09:10.392Z,49.66
2023-07-21T15:11:40.706Z,49.63
2023-07-21T15:14:09.118Z,50.57
2023-07-21T15:16:37.569Z,50.53
2023-07-21T15:19:05.690Z,50.96
2023-07-21T15:21:33.841Z,50.70
2023-07-21T15:24:02.227Z,51.04
2023-07-21T15:26:30.412Z,51.19
2023-07-21T15:28:58.949Z,51.36
2023-07-21T15:31:27.620Z,50.71
2023-07-21T15:33:55.935Z,50.74
2023-07-21T15:36:24.279Z,50.70
2023-07-21T15:38:53.133Z,50.21
2023-07-21T15:41:21.814Z,50.62
2023-07-21T15:43:49.963Z,50.69
2023-07-21T15:46:19.567Z,50.53
2023-07-21T15:48:47.842Z,50.14
2023-07-21T15:51:17.765Z,49.02
2023-07-21T15:53:45.722Z,48.54
2023-07-21T15:56:14.109Z,49.47
2023-07-21T15:58:42.597Z,49.62
2023-07-21T16:01:11.070Z,49.52
2023-07-21T16:03:39.008Z,49.73
2023-07-21T16:06:08.602Z,49.35
2023-07-21T16:08:37.705Z,49.68
2023-07-21T16:11:06.340Z,49.33
2023-07-21T16:13:36.609Z,49.47
2023-07-21T16:16:05.681Z,49.60
2023-07-21T16:18:34.336Z,48.58
2023-07-21T16:21:03.118Z,48.70
2023-07-21T16:23:31.125Z,48.54
2023-07-21T16:26:00.003Z,48.65
2023-07-21T16:28:27.962Z,48.59
2023-07-21T16:30:56.340Z,48.75
2023-07-21T16:33:24.416Z,48.62
2023-07-21T16:35:54.329Z,48.88
2023-07-21T16:38:22.602Z,49.06
2023-07-21T16:40:50.874Z,49.15
2023-07-21T16:43:19.151Z,49.38
2023-07-21T16:45:47.773Z,49.56
2023-07-21T16:48:15.921Z,49.92
2023-07-21T16:50:44.081Z,50.18
2023-07-21T16:53:12.563Z,50.63
2023-07-21T16:55:40.948Z,51.21
2023-07-21T16:58:09.827Z,51.75
2023-07-21T17:00:40.311Z,52.02
2023-07-21T17:03:08.789Z,52.03
2023-07-21T17:05:37.027Z,51.86
2023-07-21T17:08:05.805Z,52.41
2023-07-21T17:10:33.900Z,52.37
2023-07-21T17:13:01.978Z,52.15
2023-07-21T17:15:30.038Z,52.29
2023-07-21T17:18:01.015Z,52.38
2023-07-21T17:20:29.858Z,52.53
2023-07-21T17:22:58.134Z,52.93
2023-07-21T17:25:29.469Z,52.62
2023-07-21T17:27:57.638Z,52.52
2023-07-21T17:30:25.770Z,52.13
2023-07-21T17:32:53.975Z,51.54
2023-07-21T17:35:22.200Z,51.29
2023-07-21T17:37:50.268Z,51.25
2023-07-21T17:40:18.536Z,51.19
2023-07-21T17:42:46.514Z,51.07
2023-07-21T17:45:15.665Z,51.08
2023-07-21T17:47:44.661Z,50.76
2023-07-21T17:50:13.857Z,50.74
2023-07-21T17:52:42.474Z,50.78
2023-07-21T17:55:11.375Z,50.39
2023-07-21T17:57:41.687Z,50.54
2023-07-21T18:00:12.449Z,50.74
2023-07-21T18:02:41.873Z,50.81
2023-07-21T18:05:11.174Z,51.04
2023-07-21T18:07:39.445Z,51.28
2023-07-21T18:10:08.224Z,51.22
2023-07-21T18:12:36.354Z,51.31
2023-07-21T18:15:05.063Z,51.27
2023-07-21T18:17:33.569Z,51.22
2023-07-21T18:20:01.804Z,51.26
2023-07-21T18:22:31.808Z,51.32
2023-07-21T18:25:00.450Z,51.64
2023-07-21T18:27:28.535Z,51.54
2023-07-21T18:29:56.447Z,52.01
2023-07-21T18:32:24.696Z,52.20
2023-07-21T18:34:52.922Z,52.36
2023-07-21T18:37:20.973Z,52.52
2023-07-21T18:39:48.927Z,52.37
2023-07-21T18:42:18.925Z,52.13
2023-07-21T18:44:47.702Z,52.04
2023-07-21T18:47:17.050Z,51.96
2023-07-21T18:49:45.736Z,51.94
2023-07-21T18:52:14.245Z,51.96
2023-07-21T18:54:42.268Z,51.82
2023-07-21T18:57:10.454Z,51.78
2023-07-21T18:59:38.405Z,51.71
2023-07-21T19:02:06.538Z,51.83
2023-07-21T19:04:34.681Z,51.68
2023-07-21T19:07:03.057Z,51.85
2023-07-21T19:09:32.493Z,52.02
2023-07-21T19:12:00.734Z,52.18
2023-07-21T19:14:28.679Z,52.34
2023-07-21T19:16:57.059Z,52.73
2023-07-21T19:19:25.277Z,52.73
2023-07-21T19:21:53.936Z,53.21
2023-07-21T19:24:22.136Z,54.74
2023-07-21T19:26:50.217Z,55.72
2023-07-21T19:29:18.367Z,56.13
2023-07-21T19:31:47.477Z,56.95
2023-07-21T19:34:16.340Z,58.76
2023-07-21T19:36:46.614Z,58.73
2023-07-21T19:39:15.593Z,58.94
2023-07-21T19:41:44.054Z,59.86
2023-07-21T19:44:12.346Z,60.63
2023-07-21T19:46:40.547Z,60.19
2023-07-21T19:49:08.612Z,60.73
2023-07-21T19:51:36.853Z,61.08
2023-07-21T19:54:05.475Z,61.52
2023-07-21T19:56:34.657Z,61.31
2023-07-21T19:59:02.874Z,61.39
2023-07-21T20:01:31.311Z,61.64
2023-07-21T20:03:59.538Z,62.15
2023-07-21T20:06:28.050Z,62.06
2023-07-21T20:08:58.369Z,61.87
2023-07-21T20:11:26.999Z,61.75
2023-07-21T20:13:55.196Z,61.94
2023-07-21T20:16:23.297Z,62.03
2023-07-21T20:18:51.685Z,62.79
2023-07-21T20:21:19.768Z,63.57
2023-07-21T20:23:47.931Z,63.33
2023-07-21T20:26:16.100Z,62.95
2023-07-21T20:28:44.106Z,62.95
2023-07-21T20:31:13.824Z,63.61
2023-07-21T20:33:41.952Z,63.50
2023-07-21T20:36:10.001Z,63.06
2023-07-21T20:38:38.204Z,63.05
2023-07-21T20:41:09.266Z,63.19
2023-07-21T20:43:37.631Z,62.40
2023-07-21T20:46:05.855Z,62.02
2023-07-21T20:48:34.007Z,61.39
2023-07-21T20:51:02.276Z,60.84
2023-07-21T20:53:30.530Z,60.80
2023-07-21T20:55:59.019Z,60.41
2023-07-21T20:58:27.684Z,60.06
2023-07-21T21:01:00.715Z,59.52
2023-07-21T21:03:29.020Z,59.64
2023-07-21T21:05:58.587Z,59.69
2023-07-21T21:08:27.250Z,60.32
2023-07-21T21:10:55.768Z,60.46
2023-07-21T21:13:24.003Z,61.43
2023-07-21T21:15:54.813Z,61.82
2023-07-21T21:18:23.346Z,61.88
2023-07-21T21:20:53.376Z,61.77
2023-07-21T21:23:23.752Z,61.90
2023-07-21T21:25:56.452Z,62.46
2023-07-21T21:28:25.248Z,62.82
2023-07-21T21:31:00.891Z,64.37
2023-07-21T21:33:29.552Z,64.00
2023-07-21T21:35:57.776Z,63.43
2023-07-21T21:38:26.569Z,64.69
2023-07-21T21:40:55.536Z,63.76
2023-07-21T21:43:24.755Z,63.94
2023-07-21T21:45:53.343Z,65.81
2023-07-21T21:48:24.288Z,65.17
2023-07-21T21:50:54.446Z,66.72
2023-07-21T21:53:22.693Z,66.60
2023-07-21T21:55:50.767Z,65.99
2023-07-21T21:58:18.823Z,67.23
2023-07-21T22:00:46.812Z,68.78
2023-07-21T22:03:15.067Z,70.15
2023-07-21T22:05:46.984Z,69.43
2023-07-21T22:08:15.220Z,68.98
2023-07-21T22:10:43.346Z,70.40
2023-07-21T22:13:11.330Z,70.04
2023-07-21T22:15:39.625Z,69.72
2023-07-21T22:18:07.853Z,69.64
2023-07-21T22:20:38.726Z,71.25
2023-07-21T22:23:06.910Z,71.17
2023-07-21T22:25:35.088Z,71.09
2023-07-21T22:28:03.321Z,70.98
2023-07-21T22:30:32.635Z,70.56
2023-07-21T22:33:01.774Z,71.10
2023-07-21T22:35:30.618Z,70.49
2023-07-21T22:37:59.627Z,70.95
2023-07-21T22:40:28.368Z,71.31
2023-07-21T22:42:56.597Z,72.13
2023-07-21T22:45:24.752Z,72.07
2023-07-21T22:47:52.915Z,72.26
2023-07-21T22:50:21.299Z,73.61
2023-07-21T22:52:49.896Z,74.19
2023-07-21T22:55:18.167Z,73.62
2023-07-21T22:57:46.172Z,75.00
2023-07-21T23:00:15.679Z,73.89
2023-07-21T23:02:43.849Z,75.18
2023-07-21T23:05:13.392Z,75.97
2023-07-21T23:07:42.267Z,75.99
2023-07-21T23:10:10.487Z,74.54
2023-07-21T23:12:39.335Z,75.28
2023-07-21T23:15:08.043Z,78.39
2023-07-21T23:17:37.249Z,78.47
2023-07-21T23:20:06.878Z,76.25
2023-07-21T23:22:35.185Z,76.23
2023-07-21T23:25:03.232Z,76.62
2023-07-21T23:27:31.572Z,77.72
2023-07-21T23:29:59.771Z,75.92
2023-07-21T23:32:28.045Z,76.03
2023-07-21T23:34:56.170Z,77.03
2023-07-21T23:37:24.208Z,77.65
2023-07-21T23:39:52.825Z,77.20
2023-07-21T23:42:20.857Z,77.20
2023-07-21T23:44:48.736Z,80.24
2023-07-21T23:47:17.003Z,79.25
2023-07-21T23:49:45.381Z,79.25
2023-07-21T23:52:13.577Z,79.12
2023-07-21T23:54:42.011Z,79.48
2023-07-21T23:57:10.107Z,79.38
2023-07-21T23:59:38.277Z,79.46
